sensor_id;sensor_type;location;lat;lon;timestamp;pressure;altitude;pressure_sealevel;temperature;humidity
58209;BME280;44006;52.028;4.696;2022-08-07T00:00:41;102735.16;;;14.97;90.53
58209;BME280;44006;52.028;4.696;2022-08-07T00:03:07;102727.31;;;14.94;90.76
58209;BME280;44006;52.028;4.696;2022-08-07T00:05:36;102730.88;;;14.95;90.60
58209;BME280;44006;52.028;4.696;2022-08-07T00:08:03;102723.84;;;14.92;90.20
58209;BME280;44006;52.028;4.696;2022-08-07T00:10:29;102724.34;;;14.87;90.36
58209;BME280;44006;52.028;4.696;2022-08-07T00:12:55;102719.38;;;14.83;91.13
58209;BME280;44006;52.028;4.696;2022-08-07T00:15:21;102715.94;;;14.81;91.10
58209;BME280;44006;52.028;4.696;2022-08-07T00:17:46;102718.69;;;14.81;90.97
58209;BME280;44006;52.028;4.696;2022-08-07T00:20:12;102712.38;;;14.80;90.73
58209;BME280;44006;52.028;4.696;2022-08-07T00:22:37;102711.47;;;14.80;90.45
58209;BME280;44006;52.028;4.696;2022-08-07T00:25:04;102712.84;;;14.76;90.85
58209;BME280;44006;52.028;4.696;2022-08-07T00:27:30;102700.53;;;14.71;90.84
58209;BME280;44006;52.028;4.696;2022-08-07T00:29:55;102703.41;;;14.70;91.04
58209;BME280;44006;52.028;4.696;2022-08-07T00:32:21;102702.72;;;14.68;90.78
58209;BME280;44006;52.028;4.696;2022-08-07T00:34:46;102704.75;;;14.66;90.74
58209;BME280;44006;52.028;4.696;2022-08-07T00:37:16;102696.72;;;14.64;90.92
58209;BME280;44006;52.028;4.696;2022-08-07T00:39:41;102702.19;;;14.64;90.94
58209;BME280;44006;52.028;4.696;2022-08-07T00:42:07;102690.00;;;14.59;91.49
58209;BME280;44006;52.028;4.696;2022-08-07T00:44:33;102693.63;;;14.59;92.21
58209;BME280;44006;52.028;4.696;2022-08-07T00:46:59;102686.56;;;14.57;92.05
58209;BME280;44006;52.028;4.696;2022-08-07T00:49:24;102690.81;;;14.51;92.17
58209;BME280;44006;52.028;4.696;2022-08-07T00:51:50;102689.97;;;14.50;92.13
58209;BME280;44006;52.028;4.696;2022-08-07T00:54:16;102692.69;;;14.50;91.93
58209;BME280;44006;52.028;4.696;2022-08-07T00:56:42;102689.22;;;14.48;91.56
58209;BME280;44006;52.028;4.696;2022-08-07T00:59:08;102698.47;;;14.47;92.50
58209;BME280;44006;52.028;4.696;2022-08-07T01:01:34;102685.13;;;14.44;92.41
58209;BME280;44006;52.028;4.696;2022-08-07T01:04:03;102688.34;;;14.40;92.99
58209;BME280;44006;52.028;4.696;2022-08-07T01:06:29;102683.38;;;14.35;93.16
58209;BME280;44006;52.028;4.696;2022-08-07T01:08:55;102683.22;;;14.37;92.67
58209;BME280;44006;52.028;4.696;2022-08-07T01:11:21;102680.78;;;14.33;92.99
58209;BME280;44006;52.028;4.696;2022-08-07T01:13:46;102686.25;;;14.33;93.08
58209;BME280;44006;52.028;4.696;2022-08-07T01:16:12;102686.25;;;14.33;92.92
58209;BME280;44006;52.028;4.696;2022-08-07T01:18:37;102689.16;;;14.32;92.40
58209;BME280;44006;52.028;4.696;2022-08-07T01:21:12;102689.31;;;14.30;93.26
58209;BME280;44006;52.028;4.696;2022-08-07T01:23:40;102686.72;;;14.29;93.19
58209;BME280;44006;52.028;4.696;2022-08-07T01:26:10;102687.03;;;14.26;93.24
58209;BME280;44006;52.028;4.696;2022-08-07T01:28:38;102679.88;;;14.25;93.36
58209;BME280;44006;52.028;4.696;2022-08-07T01:31:05;102677.47;;;14.22;92.87
58209;BME280;44006;52.028;4.696;2022-08-07T01:33:31;102674.03;;;14.20;93.22
58209;BME280;44006;52.028;4.696;2022-08-07T01:35:57;102677.94;;;14.17;94.04
58209;BME280;44006;52.028;4.696;2022-08-07T01:38:25;102673.66;;;14.14;93.65
58209;BME280;44006;52.028;4.696;2022-08-07T01:40:53;102676.41;;;14.14;93.67
58209;BME280;44006;52.028;4.696;2022-08-07T01:43:21;102677.41;;;14.13;93.51
58209;BME280;44006;52.028;4.696;2022-08-07T01:45:47;102678.59;;;14.11;93.68
58209;BME280;44006;52.028;4.696;2022-08-07T01:48:12;102676.88;;;14.10;92.92
58209;BME280;44006;52.028;4.696;2022-08-07T01:50:38;102670.84;;;14.06;93.08
58209;BME280;44006;52.028;4.696;2022-08-07T01:53:05;102678.38;;;14.04;93.56
58209;BME280;44006;52.028;4.696;2022-08-07T01:55:36;102662.13;;;14.03;93.77
58209;BME280;44006;52.028;4.696;2022-08-07T01:58:08;102674.09;;;14.02;93.96
58209;BME280;44006;52.028;4.696;2022-08-07T02:00:35;102667.06;;;13.99;94.22
58209;BME280;44006;52.028;4.696;2022-08-07T02:03:06;102667.22;;;13.97;94.12
58209;BME280;44006;52.028;4.696;2022-08-07T02:05:38;102668.41;;;13.95;94.36
58209;BME280;44006;52.028;4.696;2022-08-07T02:08:09;102664.97;;;13.93;94.69
58209;BME280;44006;52.028;4.696;2022-08-07T02:10:36;102667.72;;;13.93;94.60
58209;BME280;44006;52.028;4.696;2022-08-07T02:13:03;102668.88;;;13.90;93.91
58209;BME280;44006;52.028;4.696;2022-08-07T02:15:29;102669.75;;;13.91;94.17
58209;BME280;44006;52.028;4.696;2022-08-07T02:17:56;102663.56;;;13.89;94.39
58209;BME280;44006;52.028;4.696;2022-08-07T02:20:22;102656.41;;;13.88;94.49
58209;BME280;44006;52.028;4.696;2022-08-07T02:22:55;102653.97;;;13.85;95.27
58209;BME280;44006;52.028;4.696;2022-08-07T02:25:22;102654.97;;;13.84;95.16
58209;BME280;44006;52.028;4.696;2022-08-07T02:27:50;102657.03;;;13.82;95.03
58209;BME280;44006;52.028;4.696;2022-08-07T02:30:17;102651.56;;;13.82;94.72
58209;BME280;44006;52.028;4.696;2022-08-07T02:32:43;102648.97;;;13.80;94.23
58209;BME280;44006;52.028;4.696;2022-08-07T02:35:09;102655.63;;;13.77;95.16
58209;BME280;44006;52.028;4.696;2022-08-07T02:37:38;102651.16;;;13.76;95.03
58209;BME280;44006;52.028;4.696;2022-08-07T02:40:06;102649.63;;;13.74;95.50
58209;BME280;44006;52.028;4.696;2022-08-07T02:42:33;102634.75;;;13.68;94.97
58209;BME280;44006;52.028;4.696;2022-08-07T02:44:59;102647.22;;;13.71;94.86
58209;BME280;44006;52.028;4.696;2022-08-07T02:47:26;102643.94;;;13.67;95.13
58209;BME280;44006;52.028;4.696;2022-08-07T02:49:52;102648.41;;;13.68;94.94
58209;BME280;44006;52.028;4.696;2022-08-07T02:52:39;102644.94;;;13.66;95.22
58209;BME280;44006;52.028;4.696;2022-08-07T02:55:29;102641.38;;;13.66;94.96
58209;BME280;44006;52.028;4.696;2022-08-07T02:58:01;102646.13;;;13.64;95.51
58209;BME280;44006;52.028;4.696;2022-08-07T03:00:27;102648.16;;;13.62;95.54
58209;BME280;44006;52.028;4.696;2022-08-07T03:02:53;102645.59;;;13.60;95.33
58209;BME280;44006;52.028;4.696;2022-08-07T03:05:19;102643.00;;;13.58;95.66
58209;BME280;44006;52.028;4.696;2022-08-07T03:07:45;102643.16;;;13.57;95.83
58209;BME280;44006;52.028;4.696;2022-08-07T03:10:12;102643.00;;;13.58;95.38
58209;BME280;44006;52.028;4.696;2022-08-07T03:12:39;102646.03;;;13.55;95.13
58209;BME280;44006;52.028;4.696;2022-08-07T03:15:06;102642.47;;;13.55;95.27
58209;BME280;44006;52.028;4.696;2022-08-07T03:17:34;102642.47;;;13.55;95.33
58209;BME280;44006;52.028;4.696;2022-08-07T03:20:01;102639.03;;;13.53;95.62
58209;BME280;44006;52.028;4.696;2022-08-07T03:22:28;102638.66;;;13.48;95.68
58209;BME280;44006;52.028;4.696;2022-08-07T03:24:54;102633.19;;;13.48;95.42
58209;BME280;44006;52.028;4.696;2022-08-07T03:27:20;102636.06;;;13.46;95.39
58209;BME280;44006;52.028;4.696;2022-08-07T03:29:51;102628.88;;;13.45;96.09
58209;BME280;44006;52.028;4.696;2022-08-07T03:32:22;102631.97;;;13.42;96.13
58209;BME280;44006;52.028;4.696;2022-08-07T03:34:49;102634.50;;;13.44;95.54
58209;BME280;44006;52.028;4.696;2022-08-07T03:37:17;102630.06;;;13.43;96.15
58209;BME280;44006;52.028;4.696;2022-08-07T03:39:45;102634.69;;;13.42;96.13
58209;BME280;44006;52.028;4.696;2022-08-07T03:42:13;102628.34;;;13.41;96.16
58209;BME280;44006;52.028;4.696;2022-08-07T03:44:40;102632.25;;;13.39;95.85
58209;BME280;44006;52.028;4.696;2022-08-07T03:47:06;102626.09;;;13.37;96.15
58209;BME280;44006;52.028;4.696;2022-08-07T03:49:32;102625.22;;;13.36;95.94
58209;BME280;44006;52.028;4.696;2022-08-07T03:51:59;102626.41;;;13.34;95.63
58209;BME280;44006;52.028;4.696;2022-08-07T03:54:25;102632.88;;;13.33;96.26
58209;BME280;44006;52.028;4.696;2022-08-07T03:56:51;102625.56;;;13.33;95.98
58209;BME280;44006;52.028;4.696;2022-08-07T03:59:17;102631.28;;;13.30;96.05
58209;BME280;44006;52.028;4.696;2022-08-07T04:01:44;102621.38;;;13.29;96.44
58209;BME280;44006;52.028;4.696;2022-08-07T04:04:10;102636.91;;;13.29;96.27
58209;BME280;44006;52.028;4.696;2022-08-07T04:06:37;102630.59;;;13.28;96.63
58209;BME280;44006;52.028;4.696;2022-08-07T04:09:05;102628.72;;;13.29;96.23
58209;BME280;44006;52.028;4.696;2022-08-07T04:11:32;102635.31;;;13.26;96.30
58209;BME280;44006;52.028;4.696;2022-08-07T04:13:58;102631.06;;;13.23;96.05
58209;BME280;44006;52.028;4.696;2022-08-07T04:16:26;102640.09;;;13.24;96.03
58209;BME280;44006;52.028;4.696;2022-08-07T04:18:52;102628.47;;;13.22;96.72
58209;BME280;44006;52.028;4.696;2022-08-07T04:21:17;102635.13;;;13.19;96.97
58209;BME280;44006;52.028;4.696;2022-08-07T04:23:44;102630.66;;;13.18;96.70
58209;BME280;44006;52.028;4.696;2022-08-07T04:26:10;102632.53;;;13.18;96.49
58209;BME280;44006;52.028;4.696;2022-08-07T04:28:35;102637.13;;;13.17;96.66
58209;BME280;44006;52.028;4.696;2022-08-07T04:31:01;102626.19;;;13.17;96.88
58209;BME280;44006;52.028;4.696;2022-08-07T04:33:26;102635.25;;;13.18;96.57
58209;BME280;44006;52.028;4.696;2022-08-07T04:35:52;102637.28;;;13.16;96.90
58209;BME280;44006;52.028;4.696;2022-08-07T04:38:19;102640.03;;;13.16;97.13
58209;BME280;44006;52.028;4.696;2022-08-07T04:40:45;102634.56;;;13.16;96.97
58209;BME280;44006;52.028;4.696;2022-08-07T04:43:13;102638.16;;;13.16;96.96
58209;BME280;44006;52.028;4.696;2022-08-07T04:48:43;102627.38;;;13.15;97.04
58209;BME280;44006;52.028;4.696;2022-08-07T04:51:23;102640.19;;;13.14;97.13
58209;BME280;44006;52.028;4.696;2022-08-07T04:57:10;102644.59;;;13.15;97.41
58209;BME280;44006;52.028;4.696;2022-08-07T04:59:53;102643.44;;;13.18;97.23
58209;BME280;44006;52.028;4.696;2022-08-07T05:02:27;102647.19;;;13.17;97.66
58209;BME280;44006;52.028;4.696;2022-08-07T05:05:13;102653.19;;;13.20;97.62
58209;BME280;44006;52.028;4.696;2022-08-07T05:07:55;102661.22;;;13.22;97.75
58209;BME280;44006;52.028;4.696;2022-08-07T05:10:40;102663.78;;;13.23;98.60
58209;BME280;44006;52.028;4.696;2022-08-07T05:13:15;102664.63;;;13.24;98.30
58209;BME280;44006;52.028;4.696;2022-08-07T05:15:44;102658.19;;;13.25;97.81
58209;BME280;44006;52.028;4.696;2022-08-07T05:18:24;102664.34;;;13.27;97.93
58209;BME280;44006;52.028;4.696;2022-08-07T05:21:03;102654.28;;;13.28;98.58
58209;BME280;44006;52.028;4.696;2022-08-07T05:26:19;102666.31;;;13.35;98.05
58209;BME280;44006;52.028;4.696;2022-08-07T05:28:48;102663.44;;;13.36;97.53
58209;BME280;44006;52.028;4.696;2022-08-07T05:31:16;102659.06;;;13.44;99.49
58209;BME280;44006;52.028;4.696;2022-08-07T05:33:42;102658.06;;;13.45;99.29
58209;BME280;44006;52.028;4.696;2022-08-07T05:36:09;102657.06;;;13.46;97.33
58209;BME280;44006;52.028;4.696;2022-08-07T05:38:36;102654.00;;;13.49;98.34
58209;BME280;44006;52.028;4.696;2022-08-07T05:41:03;102660.19;;;13.51;97.42
58209;BME280;44006;52.028;4.696;2022-08-07T05:43:29;102661.56;;;13.55;97.79
58209;BME280;44006;52.028;4.696;2022-08-07T05:45:56;102654.38;;;13.54;96.66
58209;BME280;44006;52.028;4.696;2022-08-07T05:48:22;102662.97;;;13.59;99.13
58209;BME280;44006;52.028;4.696;2022-08-07T05:50:48;102665.38;;;13.62;97.95
58209;BME280;44006;52.028;4.696;2022-08-07T05:53:14;102671.53;;;13.64;98.73
58209;BME280;44006;52.028;4.696;2022-08-07T05:55:40;102662.91;;;13.69;99.29
58209;BME280;44006;52.028;4.696;2022-08-07T05:58:06;102663.44;;;13.72;99.11
58209;BME280;44006;52.028;4.696;2022-08-07T06:00:36;102668.44;;;13.77;99.27
58209;BME280;44006;52.028;4.696;2022-08-07T06:03:04;102665.53;;;13.78;98.64
58209;BME280;44006;52.028;4.696;2022-08-07T06:05:31;102663.13;;;13.75;96.48
58209;BME280;44006;52.028;4.696;2022-08-07T06:07:58;102662.63;;;13.80;96.79
58209;BME280;44006;52.028;4.696;2022-08-07T06:10:26;102665.91;;;13.84;95.36
58209;BME280;44006;52.028;4.696;2022-08-07T06:12:52;102670.75;;;13.90;96.34
58209;BME280;44006;52.028;4.696;2022-08-07T06:15:18;102667.06;;;13.99;96.85
58209;BME280;44006;52.028;4.696;2022-08-07T06:17:45;102663.94;;;14.12;96.66
58209;BME280;44006;52.028;4.696;2022-08-07T06:20:11;102664.84;;;14.21;96.51
58209;BME280;44006;52.028;4.696;2022-08-07T06:22:38;102666.59;;;14.30;96.35
58209;BME280;44006;52.028;4.696;2022-08-07T06:25:06;102666.31;;;14.41;97.65
58209;BME280;44006;52.028;4.696;2022-08-07T06:27:31;102678.34;;;14.57;98.83
58209;BME280;44006;52.028;4.696;2022-08-07T06:29:57;102680.66;;;14.69;97.67
58209;BME280;44006;52.028;4.696;2022-08-07T06:32:22;102684.84;;;14.82;96.30
58209;BME280;44006;52.028;4.696;2022-08-07T06:34:48;102677.88;;;14.96;97.19
58209;BME280;44006;52.028;4.696;2022-08-07T06:37:14;102680.50;;;15.14;95.59
58209;BME280;44006;52.028;4.696;2022-08-07T06:39:39;102689.06;;;15.27;96.15
58209;BME280;44006;52.028;4.696;2022-08-07T06:42:16;102688.09;;;15.44;95.16
58209;BME280;44006;52.028;4.696;2022-08-07T06:44:45;102675.44;;;15.60;94.78
58209;BME280;44006;52.028;4.696;2022-08-07T06:47:12;102683.34;;;15.71;94.33
58209;BME280;44006;52.028;4.696;2022-08-07T06:49:39;102672.22;;;15.81;93.48
58209;BME280;44006;52.028;4.696;2022-08-07T06:52:07;102679.59;;;15.97;92.61
58209;BME280;44006;52.028;4.696;2022-08-07T06:54:33;102683.00;;;16.07;91.31
58209;BME280;44006;52.028;4.696;2022-08-07T06:56:59;102680.59;;;16.12;90.92
58209;BME280;44006;52.028;4.696;2022-08-07T06:59:26;102677.69;;;16.22;90.17
58209;BME280;44006;52.028;4.696;2022-08-07T07:01:53;102675.63;;;16.24;89.19
58209;BME280;44006;52.028;4.696;2022-08-07T07:04:22;102682.97;;;16.32;89.22
58209;BME280;44006;52.028;4.696;2022-08-07T07:06:47;102680.56;;;16.37;88.21
58209;BME280;44006;52.028;4.696;2022-08-07T07:09:27;102688.25;;;16.50;87.01
58209;BME280;44006;52.028;4.696;2022-08-07T07:17:14;102695.91;;;16.71;86.18
58209;BME280;44006;52.028;4.696;2022-08-07T07:19:46;102694.00;;;16.79;84.54
58209;BME280;44006;52.028;4.696;2022-08-07T07:22:14;102700.84;;;16.84;85.83
58209;BME280;44006;52.028;4.696;2022-08-07T07:24:41;102700.44;;;17.03;84.84
58209;BME280;44006;52.028;4.696;2022-08-07T07:27:09;102689.88;;;17.23;83.33
58209;BME280;44006;52.028;4.696;2022-08-07T07:29:39;102683.09;;;17.34;82.97
58209;BME280;44006;52.028;4.696;2022-08-07T07:32:11;102687.94;;;17.55;82.48
58209;BME280;44006;52.028;4.696;2022-08-07T07:34:40;102677.88;;;17.70;80.68
58209;BME280;44006;52.028;4.696;2022-08-07T07:37:07;102673.31;;;17.86;79.83
58209;BME280;44006;52.028;4.696;2022-08-07T07:39:34;102679.19;;;17.98;80.78
58209;BME280;44006;52.028;4.696;2022-08-07T07:42:01;102681.63;;;18.30;77.27
58209;BME280;44006;52.028;4.696;2022-08-07T07:44:28;102679.56;;;18.47;76.11
58209;BME280;44006;52.028;4.696;2022-08-07T07:46:56;102681.06;;;18.50;77.29
58209;BME280;44006;52.028;4.696;2022-08-07T07:49:25;102683.38;;;18.61;75.70
58209;BME280;44006;52.028;4.696;2022-08-07T07:51:52;102680.78;;;18.75;74.55
58209;BME280;44006;52.028;4.696;2022-08-07T07:54:20;102683.09;;;18.86;73.67
58209;BME280;44006;52.028;4.696;2022-08-07T07:56:47;102672.44;;;18.98;75.95
58209;BME280;44006;52.028;4.696;2022-08-07T07:59:14;102666.06;;;18.97;75.60
58209;BME280;44006;52.028;4.696;2022-08-07T08:01:43;102672.78;;;19.10;75.85
58209;BME280;44006;52.028;4.696;2022-08-07T08:04:11;102662.97;;;19.22;75.92
58209;BME280;44006;52.028;4.696;2022-08-07T08:06:38;102662.81;;;19.45;71.12
58209;BME280;44006;52.028;4.696;2022-08-07T08:09:06;102659.00;;;19.46;74.23
58209;BME280;44006;52.028;4.696;2022-08-07T08:11:33;102664.19;;;19.56;73.02
58209;BME280;44006;52.028;4.696;2022-08-07T08:13:58;102659.53;;;19.56;71.66
58209;BME280;44006;52.028;4.696;2022-08-07T08:16:44;102668.97;;;19.69;73.02
58209;BME280;44006;52.028;4.696;2022-08-07T08:19:13;102661.44;;;19.77;71.29
58209;BME280;44006;52.028;4.696;2022-08-07T08:21:41;102663.50;;;19.97;70.12
58209;BME280;44006;52.028;4.696;2022-08-07T08:24:29;102668.63;;;20.28;67.61
58209;BME280;44006;52.028;4.696;2022-08-07T08:27:14;102669.75;;;20.34;67.43
58209;BME280;44006;52.028;4.696;2022-08-07T08:29:51;102667.00;;;20.34;66.75
58209;BME280;44006;52.028;4.696;2022-08-07T08:32:20;102669.56;;;20.42;67.62
58209;BME280;44006;52.028;4.696;2022-08-07T08:34:49;102661.81;;;20.59;63.96
58209;BME280;44006;52.028;4.696;2022-08-07T08:37:15;102656.78;;;20.63;67.28
58209;BME280;44006;52.028;4.696;2022-08-07T08:39:43;102658.00;;;20.60;66.28
58209;BME280;44006;52.028;4.696;2022-08-07T08:44:49;102648.97;;;20.73;60.93
58209;BME280;44006;52.028;4.696;2022-08-07T08:52:37;102658.84;;;20.96;59.23
58209;BME280;44006;52.028;4.696;2022-08-07T08:58:25;102651.31;;;21.44;55.19
58209;BME280;44006;52.028;4.696;2022-08-07T09:00:59;102650.50;;;21.57;54.60
58209;BME280;44006;52.028;4.696;2022-08-07T09:03:33;102657.13;;;21.69;56.13
58209;BME280;44006;52.028;4.696;2022-08-07T09:06:36;102658.59;;;21.65;56.79
58209;BME280;44006;52.028;4.696;2022-08-07T09:11:49;102657.53;;;21.80;55.95
58209;BME280;44006;52.028;4.696;2022-08-07T09:15:00;102652.66;;;21.82;57.30
58209;BME280;44006;52.028;4.696;2022-08-07T09:28:26;102658.63;;;22.05;57.94
58209;BME280;44006;52.028;4.696;2022-08-07T09:31:29;102658.59;;;22.32;54.29
58209;BME280;44006;52.028;4.696;2022-08-07T09:36:31;102648.72;;;22.63;53.91
58209;BME280;44006;52.028;4.696;2022-08-07T09:39:08;102655.94;;;22.64;53.59
58209;BME280;44006;52.028;4.696;2022-08-07T09:41:45;102659.13;;;22.74;51.31
58209;BME280;44006;52.028;4.696;2022-08-07T09:44:43;102657.78;;;22.84;50.86
58209;BME280;44006;52.028;4.696;2022-08-07T09:52:50;102653.63;;;23.13;52.31
58209;BME280;44006;52.028;4.696;2022-08-07T10:01:42;102641.72;;;23.44;50.08
58209;BME280;44006;52.028;4.696;2022-08-07T10:09:45;102626.97;;;23.75;48.29
58209;BME280;44006;52.028;4.696;2022-08-07T10:13:20;102623.41;;;23.93;49.76
58209;BME280;44006;52.028;4.696;2022-08-07T10:29:19;102614.91;;;24.32;46.46
58209;BME280;44006;52.028;4.696;2022-08-07T10:31:58;102603.41;;;24.47;48.68
58209;BME280;44006;52.028;4.696;2022-08-07T10:45:27;102595.69;;;24.49;44.26
58209;BME280;44006;52.028;4.696;2022-08-07T10:50:45;102580.44;;;24.58;45.27
58209;BME280;44006;52.028;4.696;2022-08-07T11:03:45;102577.88;;;24.38;46.04
58209;BME280;44006;52.028;4.696;2022-08-07T11:06:20;102571.63;;;24.61;45.12
58209;BME280;44006;52.028;4.696;2022-08-07T11:09:13;102565.09;;;24.56;48.82
58209;BME280;44006;52.028;4.696;2022-08-07T11:11:47;102567.63;;;24.57;43.54
58209;BME280;44006;52.028;4.696;2022-08-07T11:14:31;102559.69;;;24.61;45.18
58209;BME280;44006;52.028;4.696;2022-08-07T11:17:16;102559.22;;;24.64;44.84
58209;BME280;44006;52.028;4.696;2022-08-07T11:19:54;102561.06;;;24.52;46.84
58209;BME280;44006;52.028;4.696;2022-08-07T11:22:33;102555.72;;;24.68;44.44
58209;BME280;44006;52.028;4.696;2022-08-07T11:25:15;102554.81;;;24.38;45.51
58209;BME280;44006;52.028;4.696;2022-08-07T11:28:05;102551.13;;;24.62;46.22
58209;BME280;44006;52.028;4.696;2022-08-07T11:31:03;102556.28;;;24.89;45.32
58209;BME280;44006;52.028;4.696;2022-08-07T11:33:48;102540.91;;;24.86;45.53
58209;BME280;44006;52.028;4.696;2022-08-07T11:36:17;102542.63;;;24.57;48.51
58209;BME280;44006;52.028;4.696;2022-08-07T11:41:13;102535.13;;;24.58;48.31
58209;BME280;44006;52.028;4.696;2022-08-07T12:00:55;102523.34;;;25.04;46.58
58209;BME280;44006;52.028;4.696;2022-08-07T12:08:53;102527.28;;;24.97;45.41
58209;BME280;44006;52.028;4.696;2022-08-07T12:11:23;102514.53;;;25.08;46.07
58209;BME280;44006;52.028;4.696;2022-08-07T12:14:01;102521.50;;;24.98;44.66
58209;BME280;44006;52.028;4.696;2022-08-07T12:16:30;102523.44;;;24.98;46.59
58209;BME280;44006;52.028;4.696;2022-08-07T12:19:30;102529.91;;;24.80;46.00
58209;BME280;44006;52.028;4.696;2022-08-07T12:22:11;102519.09;;;24.90;46.13
58209;BME280;44006;52.028;4.696;2022-08-07T12:24:55;102528.50;;;24.89;46.09
58209;BME280;44006;52.028;4.696;2022-08-07T12:28:09;102526.25;;;24.67;46.30
58209;BME280;44006;52.028;4.696;2022-08-07T12:30:38;102528.97;;;24.56;44.77
58209;BME280;44006;52.028;4.696;2022-08-07T12:33:09;102525.16;;;24.68;45.40
58209;BME280;44006;52.028;4.696;2022-08-07T12:35:40;102520.41;;;24.57;45.26
58209;BME280;44006;52.028;4.696;2022-08-07T12:38:07;102523.63;;;24.36;44.76
58209;BME280;44006;52.028;4.696;2022-08-07T12:40:34;102525.59;;;24.17;43.58
58209;BME280;44006;52.028;4.696;2022-08-07T12:43:03;102514.84;;;24.39;44.93
58209;BME280;44006;52.028;4.696;2022-08-07T12:45:44;102518.75;;;24.49;44.05
58209;BME280;44006;52.028;4.696;2022-08-07T12:48:34;102512.69;;;24.59;45.99
58209;BME280;44006;52.028;4.696;2022-08-07T12:51:24;102514.50;;;24.65;46.14
58209;BME280;44006;52.028;4.696;2022-08-07T12:53:57;102516.44;;;24.65;44.37
58209;BME280;44006;52.028;4.696;2022-08-07T12:56:36;102507.03;;;24.66;45.00
58209;BME280;44006;52.028;4.696;2022-08-07T12:59:07;102501.09;;;24.62;44.12
58209;BME280;44006;52.028;4.696;2022-08-07T13:04:44;102504.19;;;24.54;45.28
58209;BME280;44006;52.028;4.696;2022-08-07T13:13:00;102499.88;;;24.40;45.01
58209;BME280;44006;52.028;4.696;2022-08-07T13:15:35;102505.81;;;24.43;45.03
58209;BME280;44006;52.028;4.696;2022-08-07T13:18:24;102497.25;;;24.26;45.29
58209;BME280;44006;52.028;4.696;2022-08-07T13:23:34;102500.19;;;24.31;45.51
58209;BME280;44006;52.028;4.696;2022-08-07T13:26:09;102497.19;;;24.33;46.04
58209;BME280;44006;52.028;4.696;2022-08-07T13:28:44;102497.88;;;24.28;47.10
58209;BME280;44006;52.028;4.696;2022-08-07T13:31:18;102492.81;;;24.25;45.07
58209;BME280;44006;52.028;4.696;2022-08-07T13:33:54;102497.34;;;24.20;45.29
58209;BME280;44006;52.028;4.696;2022-08-07T13:36:29;102505.31;;;23.98;45.47
58209;BME280;44006;52.028;4.696;2022-08-07T13:44:04;102488.34;;;23.87;46.19
58209;BME280;44006;52.028;4.696;2022-08-07T13:46:34;102494.75;;;23.88;46.06
58209;BME280;44006;52.028;4.696;2022-08-07T13:49:02;102494.81;;;23.81;46.09
58209;BME280;44006;52.028;4.696;2022-08-07T13:51:31;102493.09;;;23.80;47.22
58209;BME280;44006;52.028;4.696;2022-08-07T13:54:04;102493.16;;;23.73;45.91
58209;BME280;44006;52.028;4.696;2022-08-07T13:56:33;102491.69;;;23.71;47.76
58209;BME280;44006;52.028;4.696;2022-08-07T13:59:00;102494.38;;;23.78;46.43
58209;BME280;44006;52.028;4.696;2022-08-07T14:01:28;102493.56;;;23.77;47.91
58209;BME280;44006;52.028;4.696;2022-08-07T14:03:55;102492.06;;;23.56;47.34
58209;BME280;44006;52.028;4.696;2022-08-07T14:06:22;102492.97;;;23.50;47.03
58209;BME280;44006;52.028;4.696;2022-08-07T14:08:55;102496.22;;;23.47;48.06
58209;BME280;44006;52.028;4.696;2022-08-07T14:11:24;102488.84;;;23.34;47.25
58209;BME280;44006;52.028;4.696;2022-08-07T14:13:55;102494.22;;;23.29;48.72
58209;BME280;44006;52.028;4.696;2022-08-07T14:16:35;102488.97;;;23.21;48.17
58209;BME280;44006;52.028;4.696;2022-08-07T14:19:03;102502.09;;;23.32;48.94
58209;BME280;44006;52.028;4.696;2022-08-07T14:21:41;102494.56;;;23.14;47.27
58209;BME280;44006;52.028;4.696;2022-08-07T14:24:18;102508.25;;;23.09;47.34
58209;BME280;44006;52.028;4.696;2022-08-07T14:26:50;102512.56;;;22.98;47.96
58209;BME280;44006;52.028;4.696;2022-08-07T14:29:25;102517.72;;;22.94;49.04
58209;BME280;44006;52.028;4.696;2022-08-07T14:31:51;102515.19;;;22.86;48.34
58209;BME280;44006;52.028;4.696;2022-08-07T14:34:17;102506.31;;;22.77;47.73
58209;BME280;44006;52.028;4.696;2022-08-07T14:36:47;102504.41;;;22.71;48.98
58209;BME280;44006;52.028;4.696;2022-08-07T14:39:14;102503.59;;;22.64;48.92
58209;BME280;44006;52.028;4.696;2022-08-07T14:41:42;102500.44;;;22.60;48.76
58209;BME280;44006;52.028;4.696;2022-08-07T14:44:13;102491.91;;;22.62;48.23
58209;BME280;44006;52.028;4.696;2022-08-07T14:46:40;102503.22;;;22.60;48.15
58209;BME280;44006;52.028;4.696;2022-08-07T14:49:07;102494.94;;;22.54;47.95
58209;BME280;44006;52.028;4.696;2022-08-07T14:51:34;102490.50;;;22.46;48.27
58209;BME280;44006;52.028;4.696;2022-08-07T14:54:01;102497.16;;;22.38;48.68
58209;BME280;44006;52.028;4.696;2022-08-07T14:56:28;102491.16;;;22.41;49.94
58209;BME280;44006;52.028;4.696;2022-08-07T14:59:01;102486.72;;;22.40;49.26
58209;BME280;44006;52.028;4.696;2022-08-07T15:01:31;102485.00;;;22.39;49.73
58209;BME280;44006;52.028;4.696;2022-08-07T15:04:02;102492.50;;;22.32;49.02
58209;BME280;44006;52.028;4.696;2022-08-07T15:06:31;102496.78;;;22.21;48.21
58209;BME280;44006;52.028;4.696;2022-08-07T15:09:08;102489.13;;;22.17;48.31
58209;BME280;44006;52.028;4.696;2022-08-07T15:11:39;102484.00;;;22.20;48.92
58209;BME280;44006;52.028;4.696;2022-08-07T15:14:08;102490.81;;;22.18;48.63
58209;BME280;44006;52.028;4.696;2022-08-07T15:16:43;102483.56;;;22.17;49.16
58209;BME280;44006;52.028;4.696;2022-08-07T15:19:15;102479.53;;;22.19;49.43
58209;BME280;44006;52.028;4.696;2022-08-07T15:21:44;102488.06;;;22.18;49.48
58209;BME280;44006;52.028;4.696;2022-08-07T15:24:23;102478.28;;;22.09;49.90
58209;BME280;44006;52.028;4.696;2022-08-07T15:26:57;102472.75;;;22.09;51.02